XAHHH SULS-SADF
Flight info
| Callsign | XAHHH |
|---|---|
| Flight time | N/A |
| Altitude | 24000 |
| Route | LUCIO A306 PTA |
| Aircraft | P180/L-SBDFGM3RWXY/LB1 |
Departure
| Time | 2026-04-24 21:02 |
|---|---|
| Airport | Capitan Corbeta CA Curbelo International Airport (SULS) |
Arrival
| Time | N/A |
|---|---|
| Airport | San Fernando Airport (SADF) |
| Time | Latitude | Longitude | Altitude | Speed | Heading |
|---|---|---|---|---|---|
| 2026-04-24 20:45 | -34.85955 | -55.09945 | 83 ft | 0 kts | 342° |
| 2026-04-24 20:56 | -34.85950 | -55.09947 | 86 ft | 2 kts | 342° |
| 2026-04-24 20:57 | -34.85916 | -55.09911 | 83 ft | 12 kts | 63° |
| 2026-04-24 20:57 | -34.85830 | -55.09833 | 84 ft | 15 kts | 339° |
| 2026-04-24 20:57 | -34.85691 | -55.09890 | 85 ft | 25 kts | 355° |
| 2026-04-24 20:57 | -34.85609 | -55.09754 | 86 ft | 29 kts | 70° |
| 2026-04-24 20:58 | -34.85534 | -55.09488 | 87 ft | 30 kts | 69° |
| 2026-04-24 20:58 | -34.85420 | -55.09414 | 87 ft | 18 kts | 355° |
| 2026-04-24 20:58 | -34.85287 | -55.09416 | 82 ft | 20 kts | 1° |
| 2026-04-24 20:58 | -34.85144 | -55.09403 | 75 ft | 19 kts | 28° |
| 2026-04-24 20:59 | -34.85068 | -55.09394 | 68 ft | 11 kts | 285° |
| 2026-04-24 20:59 | -34.85111 | -55.09426 | 73 ft | 11 kts | 187° |
| 2026-04-24 20:59 | -34.85125 | -55.09426 | 71 ft | 0 kts | 175° |
| 2026-04-24 21:02 | -34.85139 | -55.09424 | 68 ft | 21 kts | 175° |
| 2026-04-24 21:02 | -34.85792 | -55.09384 | 154 ft | 149 kts | 176° |
| 2026-04-24 21:02 | -34.87018 | -55.09303 | 630 ft | 197 kts | 176° |
| 2026-04-24 21:02 | -34.88487 | -55.09231 | 1509 ft | 217 kts | 176° |
| 2026-04-24 21:03 | -34.90001 | -55.09170 | 2990 ft | 218 kts | 177° |
| 2026-04-24 21:03 | -34.91520 | -55.09088 | 4460 ft | 220 kts | 176° |
| 2026-04-24 21:03 | -34.93080 | -55.08988 | 5737 ft | 238 kts | 176° |
| 2026-04-24 21:03 | -34.94863 | -55.08957 | 6056 ft | 279 kts | 187° |
| 2026-04-24 21:04 | -34.96728 | -55.09956 | 6001 ft | 304 kts | 219° |
| 2026-04-24 21:04 | -34.97938 | -55.11960 | 5991 ft | 291 kts | 250° |
| 2026-04-24 21:04 | -34.98150 | -55.14285 | 5993 ft | 267 kts | 276° |
| 2026-04-24 21:04 | -34.97865 | -55.16451 | 6101 ft | 248 kts | 282° |
| 2026-04-24 21:05 | -34.97666 | -55.18430 | 6566 ft | 223 kts | 273° |
| 2026-04-24 21:05 | -34.97802 | -55.20196 | 7101 ft | 202 kts | 262° |
| 2026-04-24 21:05 | -34.98066 | -55.21886 | 7290 ft | 203 kts | 262° |
| 2026-04-24 21:05 | -34.98297 | -55.23589 | 7463 ft | 204 kts | 264° |
| 2026-04-24 21:06 | -34.98493 | -55.25303 | 7657 ft | 203 kts | 264° |
| 2026-04-24 21:06 | -34.98677 | -55.26932 | 8070 ft | 192 kts | 264° |
| 2026-04-24 21:06 | -34.98865 | -55.28556 | 8284 ft | 194 kts | 264° |
| 2026-04-24 21:06 | -34.99054 | -55.30194 | 8503 ft | 195 kts | 264° |
| 2026-04-24 21:07 | -34.99244 | -55.31833 | 8735 ft | 195 kts | 265° |
| 2026-04-24 21:07 | -34.99370 | -55.32920 | 8885 ft | 195 kts | 265° |
| 2026-04-24 21:07 | -34.99622 | -55.35105 | 9173 ft | 196 kts | 265° |
| 2026-04-24 21:07 | -34.99813 | -55.36763 | 9389 ft | 197 kts | 265° |
| 2026-04-24 21:08 | -35.00003 | -55.38418 | 9598 ft | 197 kts | 265° |
| 2026-04-24 21:08 | -35.00192 | -55.40058 | 9805 ft | 198 kts | 265° |
| 2026-04-24 21:08 | -35.00384 | -55.41728 | 10000 ft | 199 kts | 265° |
| 2026-04-24 21:08 | -35.00576 | -55.43403 | 10188 ft | 199 kts | 265° |
| 2026-04-24 21:09 | -35.00765 | -55.45054 | 10519 ft | 194 kts | 265° |
| 2026-04-24 21:09 | -35.00957 | -55.46763 | 10958 ft | 210 kts | 264° |
| 2026-04-24 21:09 | -35.01160 | -55.48561 | 11397 ft | 221 kts | 264° |
| 2026-04-24 21:09 | -35.01375 | -55.50454 | 11845 ft | 229 kts | 264° |
| 2026-04-24 21:10 | -35.01596 | -55.52404 | 12312 ft | 234 kts | 263° |
| 2026-04-24 21:10 | -35.01821 | -55.54385 | 12777 ft | 237 kts | 263° |
| 2026-04-24 21:10 | -35.02048 | -55.56385 | 13245 ft | 239 kts | 263° |
| 2026-04-24 21:10 | -35.02272 | -55.58372 | 13712 ft | 239 kts | 263° |
| 2026-04-24 21:11 | -35.02500 | -55.60392 | 14154 ft | 240 kts | 263° |
| 2026-04-24 21:11 | -35.02728 | -55.62408 | 14580 ft | 239 kts | 263° |
| 2026-04-24 21:11 | -35.02956 | -55.64420 | 15011 ft | 238 kts | 263° |
| 2026-04-24 21:11 | -35.03183 | -55.66426 | 15448 ft | 237 kts | 263° |
| 2026-04-24 21:12 | -35.03404 | -55.68397 | 15886 ft | 236 kts | 263° |
| 2026-04-24 21:12 | -35.03555 | -55.69732 | 16187 ft | 235 kts | 263° |
| 2026-04-24 21:12 | -35.03848 | -55.72345 | 16790 ft | 232 kts | 263° |
| 2026-04-24 21:12 | -35.03993 | -55.73633 | 17095 ft | 231 kts | 263° |
| 2026-04-24 21:13 | -35.04280 | -55.76198 | 17715 ft | 228 kts | 263° |
| 2026-04-24 21:13 | -35.04493 | -55.78102 | 18194 ft | 225 kts | 264° |
| 2026-04-24 21:13 | -35.04700 | -55.79949 | 18799 ft | 215 kts | 264° |
| 2026-04-24 21:13 | -35.04899 | -55.81719 | 19383 ft | 205 kts | 264° |
| 2026-04-24 21:14 | -35.05087 | -55.83406 | 19974 ft | 196 kts | 264° |
| 2026-04-24 21:14 | -35.05264 | -55.85001 | 20569 ft | 187 kts | 265° |
| 2026-04-24 21:14 | -35.05436 | -55.86544 | 21189 ft | 178 kts | 265° |
| 2026-04-24 21:14 | -35.05460 | -55.88010 | 21810 ft | 168 kts | 277° |
| 2026-04-24 21:15 | -35.05342 | -55.89402 | 22447 ft | 160 kts | 276° |
| 2026-04-24 21:15 | -35.05250 | -55.90705 | 23087 ft | 152 kts | 276° |
| 2026-04-24 21:15 | -35.05169 | -55.91958 | 23730 ft | 144 kts | 276° |
| 2026-04-24 21:15 | -35.05085 | -55.93216 | 23978 ft | 157 kts | 276° |
| 2026-04-24 21:16 | -35.04987 | -55.94643 | 24008 ft | 180 kts | 276° |
| 2026-04-24 21:16 | -35.04878 | -55.96262 | 24016 ft | 201 kts | 276° |
| 2026-04-24 21:16 | -35.04760 | -55.98032 | 24016 ft | 223 kts | 276° |
| 2026-04-24 21:16 | -35.04626 | -56.00020 | 24020 ft | 244 kts | 276° |
| 2026-04-24 21:17 | -35.04479 | -56.02163 | 24015 ft | 262 kts | 276° |
| 2026-04-24 21:17 | -35.04320 | -56.04444 | 24015 ft | 277 kts | 276° |
| 2026-04-24 21:17 | -35.04153 | -56.06836 | 24013 ft | 289 kts | 276° |
| 2026-04-24 21:17 | -35.04038 | -56.08475 | 24013 ft | 296 kts | 276° |
| 2026-04-24 21:18 | -35.03799 | -56.11851 | 24012 ft | 307 kts | 276° |
| 2026-04-24 21:18 | -35.03672 | -56.13623 | 24013 ft | 311 kts | 276° |
| 2026-04-24 21:18 | -35.03413 | -56.17162 | 24013 ft | 318 kts | 276° |
| 2026-04-24 21:18 | -35.03218 | -56.19823 | 24012 ft | 311 kts | 276° |
| 2026-04-24 21:19 | -35.03058 | -56.22391 | 24025 ft | 296 kts | 275° |
| 2026-04-24 21:19 | -35.02919 | -56.24850 | 24070 ft | 283 kts | 275° |
| 2026-04-24 21:19 | -35.02768 | -56.27188 | 24068 ft | 275 kts | 276° |
| 2026-04-24 21:19 | -35.02603 | -56.29482 | 24067 ft | 267 kts | 276° |
| 2026-04-24 21:20 | -35.02285 | -56.33911 | 24070 ft | 257 kts | 276° |
| 2026-04-24 21:20 | -35.02135 | -56.36067 | 24069 ft | 252 kts | 276° |
| 2026-04-24 21:20 | -35.01984 | -56.38190 | 24068 ft | 249 kts | 276° |
| 2026-04-24 21:21 | -35.01835 | -56.40265 | 24069 ft | 246 kts | 276° |
| 2026-04-24 21:21 | -35.01686 | -56.42337 | 24067 ft | 244 kts | 276° |
| 2026-04-24 21:21 | -35.01538 | -56.44393 | 24067 ft | 242 kts | 276° |
| 2026-04-24 21:21 | -35.01391 | -56.46436 | 24067 ft | 240 kts | 276° |
| 2026-04-24 21:22 | -35.01244 | -56.48464 | 24070 ft | 239 kts | 276° |
| 2026-04-24 21:22 | -35.01099 | -56.50456 | 24051 ft | 238 kts | 276° |
| 2026-04-24 21:22 | -35.00953 | -56.52462 | 24065 ft | 237 kts | 276° |
| 2026-04-24 21:22 | -35.00854 | -56.53813 | 24064 ft | 236 kts | 276° |
| 2026-04-24 21:23 | -35.00661 | -56.56459 | 24065 ft | 235 kts | 276° |
| 2026-04-24 21:23 | -35.00515 | -56.58448 | 24071 ft | 235 kts | 276° |
| 2026-04-24 21:23 | -35.00366 | -56.60460 | 24073 ft | 247 kts | 276° |
| 2026-04-24 21:23 | -35.00205 | -56.62596 | 24079 ft | 258 kts | 276° |
| 2026-04-24 21:24 | -35.00037 | -56.64835 | 24085 ft | 268 kts | 276° |
| 2026-04-24 21:24 | -34.99866 | -56.67110 | 24084 ft | 276 kts | 276° |
| 2026-04-24 21:24 | -34.99738 | -56.68817 | 24085 ft | 281 kts | 276° |
| 2026-04-24 21:40 | -34.99598 | -56.70677 | 24083 ft | 285 kts | 276° |
| 2026-04-24 21:40 | -34.99415 | -56.73087 | 24079 ft | 290 kts | 276° |
| 2026-04-24 21:41 | -34.99228 | -56.75565 | 24082 ft | 294 kts | 276° |
| 2026-04-24 21:41 | -34.99041 | -56.78039 | 24082 ft | 297 kts | 276° |
| 2026-04-24 21:41 | -34.98848 | -56.80577 | 24082 ft | 300 kts | 276° |
| 2026-04-24 21:41 | -34.98657 | -56.83098 | 24081 ft | 302 kts | 276° |
| 2026-04-24 21:42 | -34.98463 | -56.85655 | 24079 ft | 304 kts | 276° |